Terminal Aerodrome Forecast
Issued by NWS

Home | Current Version | Previous Version | Text Only | Print | Product List | Glossary On
Versions: 1 2 3 4 5 6 7 8 9 10 11 12 13 14
539
FTAK31 PAJN 251720
TAFAKT
TAF
PAKT 251720Z 2518/2618 VRB05KT P6SM VCSH FEW015 OVC050
     FM261100 14006KT P6SM VCSH SCT015 OVC040=

USA.gov is the U.S. government's official web portal to all federal, state and local government web resources and services.